Time;durP1;ratioP1;P1;durP2;ratioP2;P2;SDS_P1;SDS_P2;PMS_P1;PMS_P2;Temp;Humidity;BMP_temperature;BMP_pressure;BME280_temperature;BME280_humidity;BME280_pressure;Samples;Min_cycle;Max_cycle;Signal;HPM_P1;HPM_P2
2019/07/06 00:01:52;;;;;;;3.65;1.72;;;;;;;22.81;49.04;100324.59;;;;-58
2019/07/06 00:04:51;;;;;;;2.13;1.70;;;;;;;22.80;48.96;100316.05;;;;-58
2019/07/06 00:07:52;;;;;;;1.71;1.59;;;;;;;22.80;49.04;100314.46;;;;-57
2019/07/06 00:10:52;;;;;;;2.17;1.62;;;;;;;22.79;49.01;100306.45;;;;-58
2019/07/06 00:13:52;;;;;;;1.52;1.40;;;;;;;22.80;49.03;100304.53;;;;-59
2019/07/06 00:16:52;;;;;;;2.92;1.77;;;;;;;22.79;48.99;100306.35;;;;-58
2019/07/06 00:19:52;;;;;;;3.24;1.59;;;;;;;22.79;49.09;100306.95;;;;-58
2019/07/06 00:22:54;;;;;;;2.41;1.56;;;;;;;22.79;49.01;100305.78;;;;-57
2019/07/06 00:25:52;;;;;;;1.94;1.50;;;;;;;22.79;49.00;100307.80;;;;-59
2019/07/06 00:28:52;;;;;;;1.87;1.50;;;;;;;22.79;49.00;100299.85;;;;-59
2019/07/06 00:31:52;;;;;;;2.71;1.60;;;;;;;22.79;49.00;100294.56;;;;-57
2019/07/06 00:34:52;;;;;;;1.94;1.66;;;;;;;22.78;49.04;100288.81;;;;-59
2019/07/06 00:37:52;;;;;;;1.93;1.65;;;;;;;22.78;49.04;100287.39;;;;-58
2019/07/06 00:40:51;;;;;;;2.10;1.70;;;;;;;22.79;49.06;100283.35;;;;-59
2019/07/06 00:43:52;;;;;;;1.70;1.60;;;;;;;22.79;49.04;100285.38;;;;-57
2019/07/06 00:46:52;;;;;;;1.79;1.51;;;;;;;22.78;49.07;100278.04;;;;-58
2019/07/06 00:49:52;;;;;;;1.71;1.55;;;;;;;22.78;49.10;100277.46;;;;-59
2019/07/06 00:52:52;;;;;;;3.05;1.60;;;;;;;22.78;49.06;100277.97;;;;-57
2019/07/06 00:55:52;;;;;;;1.88;1.53;;;;;;;22.78;49.05;100275.58;;;;-57
2019/07/06 00:58:52;;;;;;;1.57;1.47;;;;;;;22.78;49.10;100273.73;;;;-57
2019/07/06 01:01:51;;;;;;;1.82;1.51;;;;;;;22.77;49.04;100271.98;;;;-57
2019/07/06 01:04:52;;;;;;;1.57;1.40;;;;;;;22.77;49.10;100272.38;;;;-57
2019/07/06 01:07:52;;;;;;;1.69;1.59;;;;;;;22.77;49.08;100268.75;;;;-57
2019/07/06 01:10:52;;;;;;;1.89;1.60;;;;;;;22.77;49.10;100265.58;;;;-57
2019/07/06 01:13:52;;;;;;;2.43;1.70;;;;;;;22.77;49.13;100262.79;;;;-59
2019/07/06 01:16:52;;;;;;;2.41;1.60;;;;;;;22.78;49.07;100256.89;;;;-58
2019/07/06 01:19:51;;;;;;;2.38;1.53;;;;;;;22.77;49.10;100249.48;;;;-59
2019/07/06 01:22:52;;;;;;;1.91;1.53;;;;;;;22.77;49.13;100250.30;;;;-59
2019/07/06 01:25:51;;;;;;;1.69;1.59;;;;;;;22.77;49.14;100250.06;;;;-58
2019/07/06 01:28:52;;;;;;;2.51;1.49;;;;;;;22.77;49.10;100245.25;;;;-57
2019/07/06 01:31:52;;;;;;;1.65;1.55;;;;;;;22.76;49.12;100240.20;;;;-58
2019/07/06 01:34:52;;;;;;;2.03;1.60;;;;;;;22.76;49.17;100240.00;;;;-57
2019/07/06 01:37:52;;;;;;;1.61;1.50;;;;;;;22.76;49.10;100241.61;;;;-57
2019/07/06 01:40:52;;;;;;;2.07;1.65;;;;;;;22.76;49.10;100244.74;;;;-58
2019/07/06 01:43:51;;;;;;;1.55;1.45;;;;;;;22.75;49.14;100243.37;;;;-58
2019/07/06 01:46:52;;;;;;;2.25;1.59;;;;;;;22.75;49.13;100243.97;;;;-59
2019/07/06 01:49:51;;;;;;;1.77;1.59;;;;;;;22.75;49.11;100247.34;;;;-57
2019/07/06 01:52:52;;;;;;;1.73;1.55;;;;;;;22.75;49.17;100244.37;;;;-59
2019/07/06 01:55:52;;;;;;;1.58;1.45;;;;;;;22.75;49.18;100241.69;;;;-57
2019/07/06 01:58:52;;;;;;;2.31;1.58;;;;;;;22.75;49.15;100248.16;;;;-59
2019/07/06 02:01:52;;;;;;;1.93;1.60;;;;;;;22.75;49.16;100250.61;;;;-57
2019/07/06 02:04:51;;;;;;;2.19;1.54;;;;;;;22.75;49.19;100249.02;;;;-58
2019/07/06 02:07:52;;;;;;;1.75;1.61;;;;;;;22.75;49.16;100246.16;;;;-52
2019/07/06 02:10:52;;;;;;;1.79;1.50;;;;;;;22.74;49.17;100241.25;;;;-52
2019/07/06 02:13:52;;;;;;;1.65;1.54;;;;;;;22.75;49.18;100242.19;;;;-51
2019/07/06 02:16:52;;;;;;;1.91;1.63;;;;;;;22.75;49.17;100241.92;;;;-51
2019/07/06 02:19:52;;;;;;;1.73;1.53;;;;;;;22.75;49.16;100244.62;;;;-51
2019/07/06 02:22:52;;;;;;;2.85;1.72;;;;;;;22.75;49.23;100242.19;;;;-51
2019/07/06 02:25:52;;;;;;;1.93;1.49;;;;;;;22.74;49.21;100242.33;;;;-51
2019/07/06 02:28:51;;;;;;;1.83;1.70;;;;;;;22.75;49.17;100239.80;;;;-51
2019/07/06 02:31:52;;;;;;;1.69;1.50;;;;;;;22.74;49.18;100236.78;;;;-51
2019/07/06 02:34:52;;;;;;;2.21;1.64;;;;;;;22.74;49.23;100238.62;;;;-51
2019/07/06 02:37:51;;;;;;;1.70;1.60;;;;;;;22.73;49.21;100235.50;;;;-51
2019/07/06 02:40:52;;;;;;;2.05;1.69;;;;;;;22.74;49.22;100237.62;;;;-51
2019/07/06 02:43:52;;;;;;;1.61;1.51;;;;;;;22.74;49.19;100236.74;;;;-52
2019/07/06 02:46:52;;;;;;;1.68;1.58;;;;;;;22.74;49.18;100236.23;;;;-52
2019/07/06 02:49:52;;;;;;;1.78;1.56;;;;;;;22.73;49.21;100237.59;;;;-52
2019/07/06 02:52:52;;;;;;;1.67;1.57;;;;;;;22.73;49.21;100233.21;;;;-51
2019/07/06 02:55:52;;;;;;;1.67;1.57;;;;;;;22.73;49.24;100234.45;;;;-51
2019/07/06 02:58:51;;;;;;;2.47;1.50;;;;;;;22.73;49.23;100231.87;;;;-51
2019/07/06 03:01:51;;;;;;;1.77;1.59;;;;;;;22.73;49.27;100230.69;;;;-52
2019/07/06 03:04:52;;;;;;;1.58;1.48;;;;;;;22.73;49.27;100224.13;;;;-51
2019/07/06 03:07:52;;;;;;;1.89;1.65;;;;;;;22.72;49.29;100221.84;;;;-52
2019/07/06 03:10:52;;;;;;;1.83;1.50;;;;;;;22.73;49.26;100223.59;;;;-51
2019/07/06 03:13:51;;;;;;;1.84;1.64;;;;;;;22.73;49.23;100226.58;;;;-51
2019/07/06 03:16:52;;;;;;;1.70;1.53;;;;;;;22.73;49.24;100221.23;;;;-52
2019/07/06 03:19:52;;;;;;;2.25;1.57;;;;;;;22.72;49.29;100217.45;;;;-52
2019/07/06 03:22:51;;;;;;;1.79;1.60;;;;;;;22.72;49.23;100217.19;;;;-52
2019/07/06 03:25:52;;;;;;;1.74;1.61;;;;;;;22.73;49.23;100216.69;;;;-51
2019/07/06 03:28:52;;;;;;;1.79;1.67;;;;;;;22.72;49.28;100213.08;;;;-52
2019/07/06 03:31:51;;;;;;;2.00;1.50;;;;;;;22.73;49.25;100217.02;;;;-52
2019/07/06 03:34:51;;;;;;;1.95;1.60;;;;;;;22.72;49.25;100216.52;;;;-51
2019/07/06 03:37:52;;;;;;;2.19;1.65;;;;;;;22.72;49.27;100214.30;;;;-51
2019/07/06 03:40:51;;;;;;;1.73;1.63;;;;;;;22.72;49.27;100217.70;;;;-51
2019/07/06 03:43:51;;;;;;;1.70;1.60;;;;;;;22.72;49.31;100214.80;;;;-51
2019/07/06 03:46:52;;;;;;;1.67;1.57;;;;;;;22.71;49.30;100211.20;;;;-52
2019/07/06 03:49:51;;;;;;;2.28;1.60;;;;;;;22.72;49.30;100209.08;;;;-51
2019/07/06 03:52:51;;;;;;;1.70;1.60;;;;;;;22.71;49.27;100210.87;;;;-51
2019/07/06 03:55:51;;;;;;;1.75;1.62;;;;;;;22.71;49.27;100203.45;;;;-51
2019/07/06 03:58:51;;;;;;;1.95;1.60;;;;;;;22.71;49.29;100201.91;;;;-51
2019/07/06 04:01:52;;;;;;;1.95;1.59;;;;;;;22.71;49.29;100200.63;;;;-51
2019/07/06 04:04:52;;;;;;;1.93;1.59;;;;;;;22.71;49.27;100196.77;;;;-51
2019/07/06 04:07:52;;;;;;;1.71;1.51;;;;;;;22.71;49.32;100198.45;;;;-51
2019/07/06 04:10:51;;;;;;;1.75;1.61;;;;;;;22.70;49.34;100192.16;;;;-51
2019/07/06 04:13:51;;;;;;;1.63;1.47;;;;;;;22.70;49.38;100190.20;;;;-52
2019/07/06 04:16:51;;;;;;;1.70;1.60;;;;;;;22.70;49.28;100188.35;;;;-51
2019/07/06 04:19:51;;;;;;;1.49;1.39;;;;;;;22.70;49.33;100191.62;;;;-51
2019/07/06 04:22:52;;;;;;;1.94;1.50;;;;;;;22.70;49.34;100189.77;;;;-51
2019/07/06 04:25:52;;;;;;;1.75;1.65;;;;;;;22.69;49.33;100188.16;;;;-51
2019/07/06 04:28:51;;;;;;;1.50;1.40;;;;;;;22.69;49.41;100197.08;;;;-52
2019/07/06 04:31:51;;;;;;;1.55;1.45;;;;;;;22.69;49.37;100192.36;;;;-52
2019/07/06 04:34:52;;;;;;;1.64;1.54;;;;;;;22.69;49.33;100188.66;;;;-51
2019/07/06 04:37:52;;;;;;;1.81;1.60;;;;;;;22.69;49.37;100188.05;;;;-51
2019/07/06 04:40:52;;;;;;;1.89;1.66;;;;;;;22.68;49.38;100183.17;;;;-52
2019/07/06 04:43:52;;;;;;;1.48;1.38;;;;;;;22.69;49.37;100184.86;;;;-51
2019/07/06 04:46:51;;;;;;;1.71;1.60;;;;;;;22.68;49.39;100178.80;;;;-51
2019/07/06 04:49:51;;;;;;;1.57;1.47;;;;;;;22.69;49.40;100174.42;;;;-51
2019/07/06 04:52:51;;;;;;;1.66;1.56;;;;;;;22.69;49.41;100171.49;;;;-51
2019/07/06 04:55:51;;;;;;;1.86;1.49;;;;;;;22.69;49.36;100177.62;;;;-51
2019/07/06 04:58:51;;;;;;;1.59;1.49;;;;;;;22.68;49.37;100171.56;;;;-51
2019/07/06 05:01:52;;;;;;;1.64;1.54;;;;;;;22.68;49.39;100175.00;;;;-51
2019/07/06 05:04:51;;;;;;;1.63;1.53;;;;;;;22.69;49.42;100177.38;;;;-51
2019/07/06 05:07:51;;;;;;;1.65;1.55;;;;;;;22.69;49.37;100180.92;;;;-51
2019/07/06 05:10:51;;;;;;;1.77;1.67;;;;;;;22.68;49.42;100182.81;;;;-52
2019/07/06 05:13:51;;;;;;;6.91;3.05;;;;;;;22.50;49.75;100182.59;;;;-51
2019/07/06 05:16:51;;;;;;;4.51;3.34;;;;;;;22.35;50.54;100188.33;;;;-51
2019/07/06 05:19:52;;;;;;;5.39;3.76;;;;;;;22.27;50.72;100189.50;;;;-52
2019/07/06 05:22:52;;;;;;;6.24;3.67;;;;;;;22.29;50.66;100188.63;;;;-51
2019/07/06 05:25:51;;;;;;;5.64;3.72;;;;;;;22.28;50.66;100183.37;;;;-51
2019/07/06 05:28:51;;;;;;;5.20;3.57;;;;;;;22.28;50.63;100186.10;;;;-51
2019/07/06 05:31:51;;;;;;;5.78;3.66;;;;;;;22.34;49.81;100184.93;;;;-51
2019/07/06 05:34:51;;;;;;;5.63;3.77;;;;;;;22.31;49.94;100188.78;;;;-51
2019/07/06 05:37:51;;;;;;;5.02;3.85;;;;;;;22.33;49.77;100192.70;;;;-51
2019/07/06 05:40:52;;;;;;;6.84;3.63;;;;;;;22.34;49.87;100191.12;;;;-51
2019/07/06 05:43:51;;;;;;;5.92;4.09;;;;;;;22.27;50.15;100192.20;;;;-51
2019/07/06 05:46:51;;;;;;;4.83;3.80;;;;;;;22.25;50.20;100195.09;;;;-51
2019/07/06 05:49:51;;;;;;;6.47;3.86;;;;;;;22.22;50.12;100200.30;;;;-52
2019/07/06 05:52:52;;;;;;;5.14;3.79;;;;;;;22.23;49.92;100205.88;;;;-51
2019/07/06 05:55:51;;;;;;;4.98;3.73;;;;;;;22.21;50.09;100207.40;;;;-51
2019/07/06 05:58:51;;;;;;;5.27;3.67;;;;;;;22.22;50.20;100204.41;;;;-51
2019/07/06 06:01:51;;;;;;;4.95;3.56;;;;;;;22.27;49.70;100204.14;;;;-51
2019/07/06 06:04:51;;;;;;;5.35;3.63;;;;;;;22.28;49.35;100203.67;;;;-51
2019/07/06 06:07:51;;;;;;;5.25;3.53;;;;;;;22.30;49.43;100211.53;;;;-51
2019/07/06 06:10:51;;;;;;;6.83;3.51;;;;;;;22.34;49.40;100212.66;;;;-51
2019/07/06 06:13:51;;;;;;;6.72;3.49;;;;;;;22.37;49.32;100210.76;;;;-51
2019/07/06 06:16:52;;;;;;;5.39;3.75;;;;;;;22.39;49.33;100209.47;;;;-51
2019/07/06 06:19:52;;;;;;;4.99;3.53;;;;;;;22.41;49.28;100204.48;;;;-51
2019/07/06 06:22:51;;;;;;;5.26;3.65;;;;;;;22.43;49.29;100203.86;;;;-52
2019/07/06 06:25:51;;;;;;;4.59;3.40;;;;;;;22.44;49.37;100200.96;;;;-51
2019/07/06 06:28:51;;;;;;;4.59;3.49;;;;;;;22.45;49.36;100191.37;;;;-51
2019/07/06 06:31:52;;;;;;;3.40;3.10;;;;;;;22.46;49.37;100183.92;;;;-51
2019/07/06 06:34:51;;;;;;;4.49;3.19;;;;;;;22.47;49.35;100181.56;;;;-52
2019/07/06 06:37:52;;;;;;;4.72;3.37;;;;;;;22.47;49.37;100176.14;;;;-52
2019/07/06 06:40:52;;;;;;;4.79;3.21;;;;;;;22.48;49.39;100172.80;;;;-51
2019/07/06 06:43:51;;;;;;;4.21;3.24;;;;;;;22.48;49.44;100165.06;;;;-51
2019/07/06 06:46:51;;;;;;;5.77;3.23;;;;;;;22.48;49.39;100160.69;;;;-51
2019/07/06 06:49:52;;;;;;;4.23;3.15;;;;;;;22.50;49.45;100157.17;;;;-51
2019/07/06 06:52:52;;;;;;;3.84;3.27;;;;;;;22.50;49.40;100156.03;;;;-51
2019/07/06 06:55:51;;;;;;;4.88;3.26;;;;;;;22.51;49.36;100157.30;;;;-52
2019/07/06 06:58:52;;;;;;;3.77;3.21;;;;;;;22.51;49.45;100159.99;;;;-51
2019/07/06 07:01:51;;;;;;;5.43;3.29;;;;;;;22.51;49.38;100158.75;;;;-51
2019/07/06 07:04:51;;;;;;;3.45;3.15;;;;;;;22.52;49.41;100156.72;;;;-51
2019/07/06 07:07:52;;;;;;;4.82;3.15;;;;;;;22.52;49.46;100155.62;;;;-51
2019/07/06 07:10:51;;;;;;;4.23;3.06;;;;;;;22.52;49.42;100162.21;;;;-51
2019/07/06 07:13:52;;;;;;;3.41;3.11;;;;;;;22.53;49.42;100159.98;;;;-51
2019/07/06 07:16:52;;;;;;;4.08;3.14;;;;;;;22.53;49.42;100156.18;;;;-52
2019/07/06 07:19:51;;;;;;;3.33;3.03;;;;;;;22.53;49.42;100156.61;;;;-51
2019/07/06 07:22:51;;;;;;;3.43;3.10;;;;;;;22.53;49.39;100162.50;;;;-51
2019/07/06 07:25:51;;;;;;;3.29;2.99;;;;;;;22.54;49.48;100167.45;;;;-52
2019/07/06 07:28:51;;;;;;;3.42;2.89;;;;;;;22.54;49.48;100166.37;;;;-51
2019/07/06 07:31:52;;;;;;;3.79;3.05;;;;;;;22.55;49.41;100162.26;;;;-48
2019/07/06 07:34:51;;;;;;;3.05;2.83;;;;;;;22.55;49.38;100162.13;;;;-48
2019/07/06 07:37:52;;;;;;;3.36;3.04;;;;;;;22.55;49.41;100155.70;;;;-49
2019/07/06 07:40:52;;;;;;;3.89;3.21;;;;;;;22.55;49.42;100152.60;;;;-58
2019/07/06 07:43:51;;;;;;;3.38;3.08;;;;;;;22.55;49.43;100152.77;;;;-57
2019/07/06 07:46:51;;;;;;;3.30;3.00;;;;;;;22.55;49.42;100147.82;;;;-58
2019/07/06 07:49:51;;;;;;;17.93;3.71;;;;;;;22.56;49.60;100145.05;;;;-56
2019/07/06 07:52:51;;;;;;;5.17;3.04;;;;;;;22.57;49.89;100145.41;;;;-57
2019/07/06 07:55:51;;;;;;;3.98;2.91;;;;;;;22.59;49.69;100137.16;;;;-58
2019/07/06 07:58:52;;;;;;;3.71;3.02;;;;;;;22.61;49.70;100134.52;;;;-58
2019/07/06 08:01:51;;;;;;;3.92;2.87;;;;;;;22.64;49.68;100131.80;;;;-56
2019/07/06 08:04:51;;;;;;;4.35;3.15;;;;;;;22.66;49.81;100134.04;;;;-58
2019/07/06 08:07:53;;;;;;;4.78;3.06;;;;;;;22.68;49.79;100139.98;;;;-57
2019/07/06 08:10:51;;;;;;;3.94;3.09;;;;;;;22.70;49.77;100142.73;;;;-58
2019/07/06 08:13:52;;;;;;;5.53;3.03;;;;;;;22.71;49.84;100143.77;;;;-58
2019/07/06 08:16:52;;;;;;;4.62;2.95;;;;;;;22.73;49.96;100140.38;;;;-56
2019/07/06 08:19:51;;;;;;;3.55;3.00;;;;;;;22.74;49.84;100139.56;;;;-57
2019/07/06 08:22:51;;;;;;;5.83;3.18;;;;;;;22.73;49.83;100145.73;;;;-58
2019/07/06 08:25:51;;;;;;;4.74;3.13;;;;;;;22.73;49.90;100143.08;;;;-54
2019/07/06 08:28:51;;;;;;;3.82;3.01;;;;;;;22.75;50.07;100139.80;;;;-57
2019/07/06 08:31:52;;;;;;;6.28;3.13;;;;;;;22.75;50.02;100140.60;;;;-49
2019/07/06 08:34:51;;;;;;;4.83;3.10;;;;;;;22.77;49.99;100137.62;;;;-47
2019/07/06 08:37:51;;;;;;;8.01;3.43;;;;;;;22.79;49.96;100140.84;;;;-46
2019/07/06 08:40:51;;;;;;;5.85;3.38;;;;;;;22.79;49.94;100136.06;;;;-57
2019/07/06 08:43:51;;;;;;;5.35;3.04;;;;;;;22.79;49.81;100140.17;;;;-57
2019/07/06 08:46:51;;;;;;;9.63;3.15;;;;;;;22.78;49.74;100141.32;;;;-57
2019/07/06 08:49:51;;;;;;;4.63;2.90;;;;;;;22.78;49.76;100138.05;;;;-57
2019/07/06 08:52:51;;;;;;;10.00;3.30;;;;;;;22.79;49.93;100143.27;;;;-60
2019/07/06 08:55:51;;;;;;;9.01;3.18;;;;;;;22.80;50.02;100140.70;;;;-52
2019/07/06 08:58:52;;;;;;;11.84;3.57;;;;;;;22.82;50.00;100141.94;;;;-49
2019/07/06 09:01:52;;;;;;;11.18;3.32;;;;;;;22.83;50.06;100134.55;;;;-49
2019/07/06 09:04:51;;;;;;;7.73;3.41;;;;;;;22.84;50.09;100126.66;;;;-45
2019/07/06 09:07:51;;;;;;;7.60;3.37;;;;;;;22.86;50.09;100129.47;;;;-49
2019/07/06 09:10:52;;;;;;;7.70;3.53;;;;;;;22.87;50.12;100126.47;;;;-49
2019/07/06 09:13:52;;;;;;;5.86;3.25;;;;;;;22.89;50.06;100127.63;;;;-45
2019/07/06 09:16:52;;;;;;;9.35;3.16;;;;;;;22.90;50.09;100127.55;;;;-46
2019/07/06 09:19:52;;;;;;;7.03;3.13;;;;;;;22.92;50.18;100128.62;;;;-47
2019/07/06 09:22:52;;;;;;;4.81;3.32;;;;;;;22.92;50.21;100121.98;;;;-47
2019/07/06 09:25:51;;;;;;;6.06;3.09;;;;;;;22.94;50.16;100115.88;;;;-48
2019/07/06 09:28:51;;;;;;;5.73;3.05;;;;;;;22.95;50.10;100113.36;;;;-48
2019/07/06 09:31:51;;;;;;;6.42;3.09;;;;;;;22.95;50.14;100110.23;;;;-50
2019/07/06 09:34:52;;;;;;;7.27;3.07;;;;;;;22.96;50.20;100103.02;;;;-46
2019/07/06 09:37:52;;;;;;;13.20;3.31;;;;;;;22.98;50.21;100101.55;;;;-52
2019/07/06 09:40:51;;;;;;;8.58;3.23;;;;;;;22.97;50.02;100101.89;;;;-53
2019/07/06 09:43:51;;;;;;;8.45;3.23;;;;;;;22.97;50.07;100101.80;;;;-53
2019/07/06 09:46:51;;;;;;;8.54;3.27;;;;;;;22.96;50.04;100097.99;;;;-52
2019/07/06 09:49:51;;;;;;;5.77;2.97;;;;;;;22.95;50.01;100096.52;;;;-51
2019/07/06 09:52:51;;;;;;;8.13;3.15;;;;;;;22.94;50.02;100097.61;;;;-51
2019/07/06 09:55:51;;;;;;;6.19;2.99;;;;;;;22.94;49.98;100097.95;;;;-51
2019/07/06 09:58:51;;;;;;;5.56;2.81;;;;;;;22.93;49.95;100099.17;;;;-51
2019/07/06 10:02:01;;;;;;;4.84;2.99;;;;;;;22.92;50.03;100097.80;;;;-51
2019/07/06 10:04:51;;;;;;;7.67;3.03;;;;;;;22.92;50.01;100098.47;;;;-49
2019/07/06 10:07:51;;;;;;;5.86;2.86;;;;;;;22.92;49.92;100100.42;;;;-57
2019/07/06 10:10:51;;;;;;;10.49;3.46;;;;;;;22.92;50.01;100098.91;;;;-57
2019/07/06 10:13:52;;;;;;;5.80;2.95;;;;;;;22.95;49.96;100095.02;;;;-58
2019/07/06 10:16:51;;;;;;;8.52;2.99;;;;;;;22.98;49.93;100098.95;;;;-57
2019/07/06 10:19:51;;;;;;;5.27;2.98;;;;;;;23.00;49.90;100096.81;;;;-58
2019/07/06 10:22:51;;;;;;;6.78;3.23;;;;;;;23.01;49.89;100096.00;;;;-59
2019/07/06 10:25:52;;;;;;;6.38;3.13;;;;;;;23.02;50.00;100084.50;;;;-54
2019/07/06 10:28:53;;;;;;;6.88;3.01;;;;;;;23.03;49.93;100076.09;;;;-47
2019/07/06 10:31:51;;;;;;;6.21;2.85;;;;;;;23.05;49.95;100072.84;;;;-51
2019/07/06 10:34:52;;;;;;;9.31;3.31;;;;;;;23.06;49.94;100075.30;;;;-51
2019/07/06 10:37:52;;;;;;;5.46;2.91;;;;;;;23.07;49.87;100080.72;;;;-53
2019/07/06 10:40:52;;;;;;;6.52;2.80;;;;;;;23.06;49.86;100077.42;;;;-52
2019/07/06 10:43:51;;;;;;;7.50;3.01;;;;;;;23.08;49.70;100077.84;;;;-48
2019/07/06 10:46:51;;;;;;;3.93;2.69;;;;;;;23.08;49.80;100075.11;;;;-48
2019/07/06 10:49:52;;;;;;;6.11;3.28;;;;;;;23.09;49.87;100068.40;;;;-47
2019/07/06 10:52:52;;;;;;;8.41;3.04;;;;;;;23.09;49.95;100065.66;;;;-47
2019/07/06 10:55:51;;;;;;;5.15;2.75;;;;;;;23.10;49.94;100058.75;;;;-47
2019/07/06 10:58:51;;;;;;;6.50;2.96;;;;;;;23.11;49.97;100058.44;;;;-47
2019/07/06 11:01:51;;;;;;;5.27;2.86;;;;;;;23.12;49.96;100048.52;;;;-48
2019/07/06 11:04:51;;;;;;;6.77;2.97;;;;;;;23.12;49.77;100045.73;;;;-50
2019/07/06 11:07:51;;;;;;;7.61;3.12;;;;;;;23.10;49.89;100042.92;;;;-50
2019/07/06 11:10:51;;;;;;;6.24;2.79;;;;;;;23.10;49.94;100040.55;;;;-50
2019/07/06 11:13:51;;;;;;;4.35;2.81;;;;;;;23.09;49.92;100036.16;;;;-50
2019/07/06 11:16:52;;;;;;;6.17;2.86;;;;;;;23.08;49.88;100027.91;;;;-50
2019/07/06 11:19:51;;;;;;;6.49;3.00;;;;;;;23.08;49.85;100019.13;;;;-50
2019/07/06 11:22:51;;;;;;;4.91;2.91;;;;;;;23.07;49.83;100012.93;;;;-51
2019/07/06 11:25:51;;;;;;;4.90;2.77;;;;;;;23.07;49.82;100008.52;;;;-52
2019/07/06 11:28:51;;;;;;;4.81;2.74;;;;;;;23.07;49.77;100000.80;;;;-51
2019/07/06 11:31:51;;;;;;;3.76;2.48;;;;;;;23.07;49.82;99997.58;;;;-50
2019/07/06 11:34:51;;;;;;;5.57;2.60;;;;;;;23.06;49.77;99981.08;;;;-51
2019/07/06 11:37:51;;;;;;;6.39;2.72;;;;;;;23.07;49.78;99974.00;;;;-50
2019/07/06 11:40:51;;;;;;;7.55;2.90;;;;;;;23.06;49.79;99962.35;;;;-51
2019/07/06 11:43:51;;;;;;;4.66;2.75;;;;;;;23.05;49.81;99968.73;;;;-52
2019/07/06 11:46:51;;;;;;;3.54;2.70;;;;;;;23.05;49.80;99956.13;;;;-51
2019/07/06 11:49:51;;;;;;;4.17;2.83;;;;;;;23.05;49.79;99959.66;;;;-50
2019/07/06 11:52:52;;;;;;;5.98;2.75;;;;;;;23.06;49.75;99955.61;;;;-50
2019/07/06 11:55:52;;;;;;;6.65;2.85;;;;;;;23.06;49.71;99948.03;;;;-51
2019/07/06 11:58:51;;;;;;;4.08;2.57;;;;;;;23.05;49.73;99949.87;;;;-51
2019/07/06 12:01:52;;;;;;;20.41;3.16;;;;;;;23.07;49.76;99937.11;;;;-45
2019/07/06 12:04:51;;;;;;;6.55;2.83;;;;;;;23.08;49.83;99935.67;;;;-46
2019/07/06 12:07:52;;;;;;;5.46;2.76;;;;;;;23.10;49.78;99938.24;;;;-46
2019/07/06 12:10:52;;;;;;;6.43;2.67;;;;;;;23.11;49.90;99933.28;;;;-50
2019/07/06 12:13:51;;;;;;;17.89;3.35;;;;;;;23.13;49.86;99930.45;;;;-46
2019/07/06 12:16:52;;;;;;;8.44;2.89;;;;;;;23.17;49.80;99926.16;;;;-48
2019/07/06 12:19:52;;;;;;;9.25;3.00;;;;;;;23.17;50.09;99927.85;;;;-47
2019/07/06 12:22:52;;;;;;;5.84;2.91;;;;;;;23.18;50.11;99919.85;;;;-50
2019/07/06 12:25:51;;;;;;;7.08;2.68;;;;;;;23.20;50.17;99913.66;;;;-49
2019/07/06 12:28:52;;;;;;;7.48;2.63;;;;;;;23.20;50.24;99909.28;;;;-46
2019/07/06 12:31:52;;;;;;;5.03;2.72;;;;;;;23.22;50.13;99913.30;;;;-47
2019/07/06 12:34:51;;;;;;;6.31;2.79;;;;;;;23.23;50.15;99906.66;;;;-49
2019/07/06 12:37:51;;;;;;;6.65;2.87;;;;;;;23.23;50.29;99907.42;;;;-50
2019/07/06 12:40:51;;;;;;;5.33;2.63;;;;;;;23.25;50.26;99908.98;;;;-47
2019/07/06 12:43:52;;;;;;;6.59;2.71;;;;;;;23.26;50.12;99901.08;;;;-50
2019/07/06 12:46:51;;;;;;;6.67;2.70;;;;;;;23.27;50.29;99902.95;;;;-51
2019/07/06 12:49:51;;;;;;;4.27;2.69;;;;;;;23.28;50.16;99907.95;;;;-63
2019/07/06 12:52:51;;;;;;;5.71;2.70;;;;;;;23.28;50.24;99906.67;;;;-60
2019/07/06 12:55:51;;;;;;;5.30;2.64;;;;;;;23.29;50.11;99903.49;;;;-51
2019/07/06 12:58:51;;;;;;;6.47;2.66;;;;;;;23.30;50.13;99894.05;;;;-49
2019/07/06 13:01:51;;;;;;;5.97;2.60;;;;;;;23.31;50.23;99892.05;;;;-49
2019/07/06 13:04:52;;;;;;;6.83;2.55;;;;;;;23.32;50.22;99887.52;;;;-47
2019/07/06 13:07:51;;;;;;;5.59;2.66;;;;;;;23.31;50.17;99878.43;;;;-52
2019/07/06 13:10:51;;;;;;;8.45;2.83;;;;;;;23.32;50.22;99870.53;;;;-51
2019/07/06 13:13:51;;;;;;;6.27;2.78;;;;;;;23.33;50.14;99865.76;;;;-57
2019/07/06 13:16:51;;;;;;;5.04;2.81;;;;;;;23.33;50.19;99862.97;;;;-50
2019/07/06 13:19:51;;;;;;;5.87;2.68;;;;;;;23.34;50.19;99863.80;;;;-52
2019/07/06 13:22:51;;;;;;;6.03;2.59;;;;;;;23.33;50.30;99871.48;;;;-48
2019/07/06 13:25:51;;;;;;;4.37;2.64;;;;;;;23.34;50.25;99878.22;;;;-51
2019/07/06 13:28:51;;;;;;;5.81;2.72;;;;;;;23.35;50.21;99869.75;;;;-52
2019/07/06 13:31:51;;;;;;;5.38;2.50;;;;;;;23.35;50.13;99866.86;;;;-52
2019/07/06 13:34:52;;;;;;;5.07;2.60;;;;;;;23.35;50.13;99864.75;;;;-54
2019/07/06 13:37:51;;;;;;;4.52;2.45;;;;;;;23.36;50.14;99869.50;;;;-54
2019/07/06 13:40:51;;;;;;;4.25;2.50;;;;;;;23.36;50.23;99865.55;;;;-52
2019/07/06 13:43:51;;;;;;;4.22;2.40;;;;;;;23.36;50.21;99870.94;;;;-54
2019/07/06 13:46:51;;;;;;;4.11;2.71;;;;;;;23.36;50.13;99859.31;;;;-56
2019/07/06 13:49:51;;;;;;;2.90;2.29;;;;;;;23.37;50.16;99868.17;;;;-50
2019/07/06 13:52:52;;;;;;;7.18;2.67;;;;;;;23.37;50.11;99865.30;;;;-50
2019/07/06 13:55:51;;;;;;;3.98;2.41;;;;;;;23.38;50.17;99862.46;;;;-53
2019/07/06 13:58:52;;;;;;;29.47;3.72;;;;;;;23.39;50.27;99861.20;;;;-51
2019/07/06 14:01:52;;;;;;;9.05;2.50;;;;;;;23.39;50.04;99856.24;;;;-50
2019/07/06 14:04:51;;;;;;;6.79;2.63;;;;;;;23.39;50.12;99859.38;;;;-50
2019/07/06 14:07:51;;;;;;;10.53;2.96;;;;;;;23.39;50.10;99852.12;;;;-52
2019/07/06 14:10:51;;;;;;;8.46;2.63;;;;;;;23.38;49.91;99848.41;;;;-52
2019/07/06 14:13:51;;;;;;;7.19;2.49;;;;;;;23.37;50.11;99850.04;;;;-52
2019/07/06 14:16:51;;;;;;;5.77;2.51;;;;;;;23.36;50.05;99839.16;;;;-52
2019/07/06 14:19:51;;;;;;;8.92;2.93;;;;;;;23.36;50.10;99837.72;;;;-52
2019/07/06 14:22:51;;;;;;;6.80;2.45;;;;;;;23.33;50.09;99847.63;;;;-52
2019/07/06 14:25:51;;;;;;;6.33;2.49;;;;;;;23.32;50.03;99834.30;;;;-52
2019/07/06 14:28:51;;;;;;;7.77;2.37;;;;;;;23.32;50.06;99839.50;;;;-52
2019/07/06 14:31:51;;;;;;;6.13;2.40;;;;;;;23.31;50.04;99830.91;;;;-52
2019/07/06 14:34:51;;;;;;;6.29;2.51;;;;;;;23.30;50.06;99828.03;;;;-52
2019/07/06 14:37:51;;;;;;;5.34;2.47;;;;;;;23.30;50.05;99824.66;;;;-52
2019/07/06 14:40:51;;;;;;;5.52;2.53;;;;;;;23.29;50.03;99822.52;;;;-52
2019/07/06 14:43:51;;;;;;;6.24;2.41;;;;;;;23.28;50.01;99813.17;;;;-52
2019/07/06 14:46:51;;;;;;;6.48;2.45;;;;;;;23.29;50.01;99813.33;;;;-52
2019/07/06 14:49:51;;;;;;;7.53;2.47;;;;;;;23.28;50.00;99807.41;;;;-52
2019/07/06 14:52:51;;;;;;;8.49;2.51;;;;;;;23.28;49.95;99815.50;;;;-52
2019/07/06 14:55:51;;;;;;;5.65;2.23;;;;;;;23.27;49.99;99810.12;;;;-52
2019/07/06 14:58:52;;;;;;;4.62;2.39;;;;;;;23.27;49.94;99813.39;;;;-52
2019/07/06 15:01:51;;;;;;;3.45;2.28;;;;;;;23.26;49.92;99814.05;;;;-52
2019/07/06 15:04:51;;;;;;;5.59;2.23;;;;;;;23.27;49.96;99805.20;;;;-51
2019/07/06 15:07:57;;;;;;;4.05;2.26;;;;;;;23.27;49.95;99807.50;;;;-52
2019/07/06 15:10:51;;;;;;;3.73;2.15;;;;;;;23.26;49.93;99803.53;;;;-52
2019/07/06 15:13:51;;;;;;;3.71;2.20;;;;;;;23.26;49.92;99803.27;;;;-52
2019/07/06 15:16:51;;;;;;;3.91;2.07;;;;;;;23.24;49.92;99796.08;;;;-52
2019/07/06 15:19:51;;;;;;;4.53;2.20;;;;;;;23.24;49.92;99792.20;;;;-52
2019/07/06 15:22:51;;;;;;;3.96;2.10;;;;;;;23.24;49.92;99787.66;;;;-52
2019/07/06 15:25:51;;;;;;;7.38;2.42;;;;;;;23.25;50.02;99786.73;;;;-51
2019/07/06 15:28:51;;;;;;;5.57;2.37;;;;;;;23.27;50.11;99773.45;;;;-50
2019/07/06 15:31:51;;;;;;;2.77;2.20;;;;;;;23.30;50.08;99778.83;;;;-52
2019/07/06 15:34:51;;;;;;;4.35;2.39;;;;;;;23.31;50.22;99763.59;;;;-53
2019/07/06 15:37:51;;;;;;;4.35;2.33;;;;;;;23.33;50.22;99769.45;;;;-53
2019/07/06 15:40:51;;;;;;;5.81;2.33;;;;;;;23.34;50.29;99761.28;;;;-53
2019/07/06 15:43:51;;;;;;;6.33;2.41;;;;;;;23.34;50.31;99756.66;;;;-52
2019/07/06 15:46:51;;;;;;;5.96;2.23;;;;;;;23.36;50.38;99761.73;;;;-53
2019/07/06 15:49:51;;;;;;;6.27;2.25;;;;;;;23.37;50.31;99756.52;;;;-52
2019/07/06 15:52:51;;;;;;;5.29;2.21;;;;;;;23.38;50.38;99752.08;;;;-51
2019/07/06 15:55:52;;;;;;;4.73;2.14;;;;;;;23.39;50.42;99757.83;;;;-52
2019/07/06 15:58:51;;;;;;;4.71;2.31;;;;;;;23.39;50.39;99753.35;;;;-49
2019/07/06 16:01:51;;;;;;;4.35;2.17;;;;;;;23.41;50.42;99751.88;;;;-48
2019/07/06 16:04:51;;;;;;;8.20;2.61;;;;;;;23.41;50.39;99750.79;;;;-49
2019/07/06 16:07:51;;;;;;;3.44;2.11;;;;;;;23.41;50.41;99744.21;;;;-50
2019/07/06 16:10:51;;;;;;;4.51;1.98;;;;;;;23.43;50.47;99742.91;;;;-51
2019/07/06 16:13:52;;;;;;;6.51;2.14;;;;;;;23.44;50.43;99739.05;;;;-50
2019/07/06 16:16:51;;;;;;;2.64;2.01;;;;;;;23.43;50.31;99733.96;;;;-52
2019/07/06 16:19:51;;;;;;;4.93;2.13;;;;;;;23.43;50.24;99737.17;;;;-52
2019/07/06 16:22:51;;;;;;;6.84;1.97;;;;;;;23.43;50.24;99733.30;;;;-54
2019/07/06 16:25:51;;;;;;;9.71;2.56;;;;;;;23.42;50.44;99727.89;;;;-48
2019/07/06 16:28:51;;;;;;;12.21;2.32;;;;;;;23.42;50.38;99728.47;;;;-51
2019/07/06 16:31:51;;;;;;;6.68;2.33;;;;;;;23.43;50.42;99723.59;;;;-51
2019/07/06 16:34:51;;;;;;;6.05;2.11;;;;;;;23.44;50.49;99717.97;;;;-57
2019/07/06 16:37:51;;;;;;;9.83;2.20;;;;;;;23.44;50.36;99712.58;;;;-55
2019/07/06 16:40:51;;;;;;;6.41;2.23;;;;;;;23.45;50.43;99720.59;;;;-51
2019/07/06 16:43:51;;;;;;;7.93;2.41;;;;;;;23.46;50.39;99717.92;;;;-51
2019/07/06 16:46:51;;;;;;;6.55;2.46;;;;;;;23.47;50.39;99712.97;;;;-52